Home > Products > Valid Products > TAF

000
FTUS44 KSHV 271700
TAFELD
TAF
KELD 271720Z 2718/2818 08006KT P6SM FEW080 SCT250
     FM280000 13004KT P6SM FEW080 SCT250
     FM280200 VRB03KT P6SM SCT250
     FM281330 15005KT P6SM FEW050=



000
FTUS44 KSHV 271700
TAFGGG
TAF
KGGG 271720Z 2718/2818 10007KT P6SM SCT250
     FM271900 09007KT P6SM FEW050 SCT250
     FM280100 10004KT P6SM SCT250
     FM281330 15005KT P6SM FEW050=



000
FTUS44 KSHV 271700
TAFSHV
TAF
KSHV 271720Z 2718/2818 09007KT P6SM FEW150 FEW250
     FM271900 09007KT P6SM SCT050 SCT250
     FM280200 VRB03KT P6SM FEW050 SCT250
     FM281330 15005KT P6SM FEW050=



000
FTUS44 KSHV 271700
TAFTYR
TAF
KTYR 271720Z 2718/2818 09007KT P6SM SCT250
     FM271900 10007KT P6SM FEW050 SCT250
     FM280100 10004KT P6SM SCT250
     FM281330 15005KT P6SM FEW050=



000
FTUS44 KSHV 271700
TAFTXK
TAF
KTXK 271720Z 2718/2818 10007KT P6SM SCT250
     FM280100 13003KT P6SM FEW050 SCT250
     FM280600 13003KT P6SM SCT250
     FM281330 15005KT P6SM FEW050=



000
FTUS44 KSHV 271700
TAFMLU
TAF
KMLU 271720Z 2718/2818 06005KT P6SM FEW150 SCT250
     FM271900 06007KT P6SM SCT050 SCT250
     FM280100 06003KT P6SM FEW060 BKN250
     FM280500 VRB03KT P6SM SCT250
     FM281330 15005KT P6SM FEW050=



000
FTUS44 KSHV 271700
TAFLFK
TAF
KLFK 271720Z 2718/2818 09007KT P6SM VCTS SCT040CB SCT250
     FM280100 13004KT P6SM SCT050 BKN250
     FM280500 13004KT P6SM SCT100 SCT250
     FM281330 15005KT P6SM FEW050=



000
FTUS44 KSHV 271400 AAA
TAFTXK
TAF AMD
KTXK 271418Z 2714/2812 10007KT P6SM SCT250
     FM280100 13003KT P6SM FEW050 SCT250
     FM280600 13003KT P6SM SCT250=



000
FTUS44 KSHV 271300 AAA
TAFGGG
TAF AMD
KGGG 271325Z 2713/2812 10007KT P6SM SCT250
     FM271900 09007KT P6SM FEW050 SCT250
     FM280100 10004KT P6SM SCT250=



000
FTUS44 KSHV 271100 RRA
TAFLFK
TAF
KLFK 271147Z 2712/2812 VRB03KT P6SM SCT250
     FM271700 09007KT P6SM VCTS SCT040CB SCT250
     FM280100 13004KT P6SM SCT050 BKN250
     FM280500 13004KT P6SM SCT100 SCT250=



000
FTUS44 KSHV 271100 RRA
TAFELD
TAF
KELD 271147Z 2712/2812 00000KT P6SM FEW250
     FM271600 08006KT P6SM FEW080 SCT250
     FM280000 13004KT P6SM FEW080 SCT250
     FM280200 VRB03KT P6SM SCT250=



000
FTUS44 KSHV 271100 RRA
TAFGGG
TAF
KGGG 271147Z 2712/2812 00000KT P6SM SCT250
      TEMPO 2712/2714 5SM BR
     FM271500 10007KT P6SM SCT250
     FM271900 09007KT P6SM FEW050 SCT250
     FM280100 10004KT P6SM SCT250=



000
FTUS44 KSHV 271100 RRA
TAFTYR
TAF
KTYR 271147Z 2712/2812 00000KT P6SM FEW150
     FM271500 09007KT P6SM SCT250
     FM271900 10007KT P6SM FEW050 SCT250
     FM280100 10004KT P6SM SCT250=



000
FTUS44 KSHV 271100 RRA
TAFTXK
TAF
KTXK 271147Z 2712/2812 VRB03KT 5SM BR FEW150
      TEMPO 2712/2714 2SM BR
     FM271500 10007KT P6SM SCT250
     FM280100 13003KT P6SM FEW050 SCT250
     FM280600 13003KT P6SM SCT250=



000
FTUS44 KSHV 271100 RRA
TAFSHV
TAF
KSHV 271147Z 2712/2812 00000KT P6SM FEW150
     FM271500 09007KT P6SM FEW150 FEW250
     FM271900 09007KT P6SM SCT050 SCT250
     FM280200 VRB03KT P6SM FEW050 SCT250=



000
FTUS44 KSHV 271100 RRA
TAFMLU
TAF
KMLU 271147Z 2712/2812 VRB04KT P6SM FEW150
     FM271600 06005KT P6SM FEW150 SCT250
     FM271900 06007KT P6SM SCT050 SCT250
     FM280100 06003KT P6SM FEW060 BKN250
     FM280500 VRB03KT P6SM SCT250=



000
FTUS44 KSHV 270500
TAFTYR
TAF
KTYR 270524Z 2706/2806 08006KT P6SM SCT250
     FM271500 09007KT P6SM SCT250
     FM280000 10006KT P6SM BKN070 BKN250=



000
FTUS44 KSHV 270500
TAFGGG
TAF
KGGG 270524Z 2706/2806 00000KT P6SM SCT250
     FM271500 10006KT P6SM SCT250
     FM280000 13003KT P6SM BKN080=



000
FTUS44 KSHV 270500
TAFMLU
TAF
KMLU 270524Z 2706/2806 00000KT P6SM SCT250
      TEMPO 2708/2712 3SM BR
     FM271200 VRB03KT P6SM SCT250
     FM271600 06005KT P6SM SCT250
     FM280000 06003KT P6SM BKN070 BKN250=



000
FTUS44 KSHV 270500
TAFLFK
TAF
KLFK 270524Z 2706/2806 05003KT P6SM SCT250
      TEMPO 2710/2714 3SM BR
     FM271500 09007KT P6SM VCTS SCT040CB SCT250
     FM280000 13004KT P6SM SCT070 BKN250=



000
FTUS44 KSHV 270500
TAFTXK
TAF
KTXK 270524Z 2706/2806 00000KT P6SM SCT250
     FM271500 13005KT P6SM SCT250
     FM280000 13003KT P6SM SCT060 SCT250=



000
FTUS44 KSHV 270500
TAFELD
TAF
KELD 270524Z 2706/2806 00000KT P6SM SKC
      TEMPO 2708/2712 3SM BR
     FM271200 07006KT P6SM SCT250
     FM280000 13004KT P6SM FEW080 SCT250=



000
FTUS44 KSHV 270500
TAFSHV
TAF
KSHV 270524Z 2706/2806 07003KT P6SM SCT250
     FM271500 09007KT P6SM SCT250
     FM280000 08006KT P6SM SCT070 SCT250=



000
FTUS44 KSHV 262300
TAFELD
TAF
KELD 262320Z 2700/2724 VRB04KT P6SM SCT045 SCT080 SCT250
      TEMPO 2708/2712 3SM BR
     FM271200 07006KT P6SM SCT250=



000
FTUS44 KSHV 262300
TAFSHV
TAF
KSHV 262320Z 2700/2724 10006KT P6SM FEW050 SCT100 BKN160
     FM270200 VRB03KT P6SM SCT250
     FM271500 09007KT P6SM SCT250=



000
FTUS44 KSHV 262300
TAFTYR
TAF
KTYR 262320Z 2700/2724 10006KT P6SM OVC100
     FM270200 11005KT P6SM SCT250
     FM271500 09007KT P6SM SCT250=



000
FTUS44 KSHV 262300
TAFTXK
TAF
KTXK 262320Z 2700/2724 00000KT P6SM SCT250
     FM271500 13005KT P6SM SCT250=



000
FTUS44 KSHV 262300
TAFGGG
TAF
KGGG 262320Z 2700/2724 13007KT P6SM SCT060
     FM270200 12003KT P6SM SCT250
     FM271500 10006KT P6SM SCT250=



000
FTUS44 KSHV 262300
TAFMLU
TAF
KMLU 262320Z 2700/2724 08007KT P6SM FEW060
     FM270200 00000KT P6SM SCT250
     FM270600 00000KT 3SM BR SCT250
      TEMPO 2708/2712 1SM BR
     FM271200 VRB03KT P6SM SCT250
     FM271600 08005KT P6SM SKC=



000
FTUS44 KSHV 262300
TAFLFK
TAF
KLFK 262320Z 2700/2724 11004KT P6SM SCT250
      TEMPO 2710/2714 3SM BR
     FM271500 09007KT P6SM VCTS SCT040CB SCT250=



000
FTUS44 KSHV 262100 AAA
TAFLFK
TAF AMD
KLFK 262106Z 2621/2718 06006KT P6SM VCSH FEW050
     FM270100 VRB03KT P6SM SCT050 SCT090 SCT250
     FM271500 09005KT P6SM SCT040 SCT250=



000
FTUS44 KSHV 262100 AAB
TAFTXK
TAF AMD
KTXK 262106Z 2621/2718 09007KT P6SM VCTS SCT045CB SCT250
      TEMPO 2621/2623 3SM -TSRA BR BKN045CB
     FM270100 VRB03KT P6SM SCT250
     FM271500 11005KT P6SM SCT250=



000
FTUS44 KSHV 262100 AAA
TAFTXK
TAF AMD
KTXK 262100Z 2621/2718 09007KT P6SM SCT045 SCT250
      TEMPO 2621/2623 3SM -TSRA BR BKN045CB
     FM270100 VRB03KT P6SM SCT250
     FM271500 11005KT P6SM SCT250=



000
FTUS44 KSHV 261700
TAFTYR
TAF
KTYR 261733Z 2618/2718 10007KT P6SM SCT045 SCT250
     FM270200 12005KT P6SM SCT250
     FM271500 10007KT P6SM SCT250=



000
FTUS44 KSHV 261700
TAFLFK
TAF
KLFK 261733Z 2618/2718 09006KT P6SM SCT030 SCT050 SCT250
     FM270100 VRB03KT P6SM SCT050 SCT090 SCT250
     FM271500 09005KT P6SM SCT040 SCT250=



000
FTUS44 KSHV 261700
TAFGGG
TAF
KGGG 261733Z 2618/2718 10007KT P6SM SCT045 SCT250
     FM270200 12003KT P6SM SCT250
     FM271500 10006KT P6SM SCT250=



000
FTUS44 KSHV 261700
TAFELD
TAF
KELD 261733Z 2618/2718 08006KT P6SM SCT045 SCT080 SCT250
     FM270200 00000KT P6SM SCT250
      TEMPO 2708/2712 3SM BR
     FM271200 VRB03KT P6SM SCT250=



000
FTUS44 KSHV 261700
TAFSHV
TAF
KSHV 261733Z 2618/2718 09007KT P6SM SCT045 SCT250
     FM270100 VRB03KT P6SM SCT250
     FM271500 09006KT P6SM SCT250=



000
FTUS44 KSHV 261700
TAFTXK
TAF
KTXK 261733Z 2618/2718 09007KT P6SM SCT045 SCT250
     FM270100 VRB03KT P6SM SCT250
     FM271500 11005KT P6SM SCT250=



000
FTUS44 KSHV 261700
TAFMLU
TAF
KMLU 261733Z 2618/2718 08006KT P6SM SCT045 SCT080 SCT250
     FM270200 00000KT P6SM SCT250
     FM270600 00000KT 3SM BR SCT250
      TEMPO 2708/2712 1SM BR
     FM271200 VRB03KT P6SM SCT250=



000
FTUS44 KSHV 261100 RRA
TAFTXK
TAF
KTXK 261150Z 2612/2712 11005KT 5SM BR SCT250
      TEMPO 2613/2614 6SM BR SCT250
     FM261400 09007KT P6SM SCT050 BKN250
     FM262200 09007KT P6SM VCSH BKN050 BKN100
     FM270000 11005KT P6SM SCT050 BKN250=



000
FTUS44 KSHV 261100 RRA
TAFGGG
TAF
KGGG 261150Z 2612/2712 VRB03KT P6SM BKN250
     FM261500 10007KT P6SM SCT045 BKN250
     FM261800 08008KT P6SM SCT050 BKN100
     FM262200 09007KT P6SM VCSH BKN050 BKN100
     FM270100 11005KT P6SM BKN250
     FM270400 11005KT P6SM VCSH BKN050
     FM270700 12004KT P6SM SCT250=



000
FTUS44 KSHV 261100 RRA
TAFELD
TAF
KELD 261150Z 2612/2712 00000KT P6SM SCT250
      TEMPO 2612/2614 5SM BR SCT090 SCT250
     FM261600 09006KT P6SM SCT040
     FM262200 09007KT P6SM VCTS BKN050CB BKN100
     FM262300 08007KT P6SM BKN050 BKN100
     FM270100 10005KT P6SM FEW050 BKN250=



000
FTUS44 KSHV 261100 RRA
TAFMLU
TAF
KMLU 261150Z 2612/2712 00000KT 3SM BR SCT090 BKN300
      TEMPO 2612/2613 1 1/2SM BR BKN090 BKN300
     FM261400 06005KT P6SM SCT040 BKN060
     FM261800 07008KT P6SM VCSH BKN050 BKN300
     FM262000 05008KT P6SM SCT050 BKN250
     FM270100 VRB03KT P6SM BKN250=



000
FTUS44 KSHV 261100 RRA
TAFLFK
TAF
KLFK 261150Z 2612/2712 VRB04KT P6SM SCT045 SCT250
     FM261500 08007KT P6SM SCT090 BKN250
     FM261800 08008KT P6SM VCSH BKN045
      TEMPO 2622/2624 5SM -TSRA BKN040CB OVC070
     FM270100 11005KT P6SM SCT050 SCT090 BKN250=



000
FTUS44 KSHV 261100 RRA
TAFTYR
TAF
KTYR 261150Z 2612/2712 VRB03KT P6SM BKN250
     FM261500 10007KT P6SM SCT045 BKN250
     FM261800 08008KT P6SM SCT050 BKN100
     FM262200 09007KT P6SM VCSH BKN050 BKN100
     FM270100 11005KT P6SM BKN250
     FM270400 11005KT P6SM VCSH BKN050
     FM270700 12004KT P6SM SCT250=



000
FTUS44 KSHV 261100 RRA
TAFSHV
TAF
KSHV 261150Z 2612/2712 VRB03KT P6SM FEW150 FEW250
     FM261500 09006KT P6SM FEW045 SCT150 BKN250
     FM261900 08009KT P6SM VCSH BKN050 BKN250
     FM262100 08012KT P6SM SCT050 BKN250
     FM270100 10005KT P6SM BKN250=



000
FTUS44 KSHV 261000 AAC
TAFMLU
TAF AMD
KMLU 261057Z 2611/2706 00000KT 3SM BR SCT090 BKN300
      TEMPO 2611/2613 1 1/2SM BR BKN090 BKN300
     FM261400 06005KT P6SM SCT040 BKN060
     FM261800 07008KT P6SM VCSH BKN050 BKN300
     FM262000 05008KT P6SM SCT050 BKN250
     FM270100 VRB03KT P6SM BKN250=



000
FTUS44 KSHV 260900 AAB
TAFMLU
TAF AMD
KMLU 260933Z 2610/2706 00000KT P6SM SKC
      TEMPO 2610/2613 3SM BR FEW090 BKN300
     FM261400 06005KT P6SM SCT040 BKN060
     FM261800 07008KT P6SM VCTS BKN050CB
     FM262000 06007KT P6SM SCT045 BKN060 OVC090
     FM270100 10005KT P6SM BKN250=



000
FTUS44 KSHV 260700 AAA
TAFMLU
TAF AMD
KMLU 260738Z 2608/2706 00000KT 3SM BR BKN300
      TEMPO 2608/2612 1 1/2SM BR FEW090 BKN300
     FM261400 06005KT P6SM SCT040 BKN060
     FM261800 07008KT P6SM VCTS BKN050CB
     FM262000 06007KT P6SM SCT045 BKN060 OVC090
     FM270100 10005KT P6SM BKN250=



000
FTUS44 KSHV 260500
TAFELD
TAF
KELD 260536Z 2606/2706 00000KT P6SM OVC250
     FM261600 09006KT P6SM SCT040
     FM270100 10005KT P6SM BKN250=



000
FTUS44 KSHV 260500
TAFLFK
TAF
KLFK 260536Z 2606/2706 13007KT P6SM FEW045 SCT060
     FM260900 10005KT P6SM BKN250
     FM261500 08007KT P6SM SCT035
     FM261800 08008KT P6SM VCTS BKN045CB
      TEMPO 2620/2624 3SM -TSRA BKN030CB OVC070CB
     FM270100 11005KT P6SM SCT070 BKN250=



000
FTUS44 KSHV 260500
TAFMLU
TAF
KMLU 260536Z 2606/2706 01003KT P6SM BKN250
     FM261500 06005KT P6SM SCT035
     FM261900 07008KT P6SM VCTS BKN050CB
     FM270100 10005KT P6SM BKN250=



000
FTUS44 KSHV 260500
TAFSHV
TAF
KSHV 260536Z 2606/2706 13003KT P6SM OVC250
     FM261500 09006KT P6SM FEW035 BKN250
     FM261900 08009KT P6SM VCTS SCT050CB BKN250
     FM270100 10005KT P6SM BKN250=



000
FTUS44 KSHV 260500
TAFTXK
TAF
KTXK 260536Z 2606/2706 11005KT P6SM OVC250
     FM261600 09007KT P6SM FEW040
     FM270000 11005KT P6SM BKN250=



000
FTUS44 KSHV 260500
TAFGGG
TAF
KGGG 260536Z 2606/2706 12009KT P6SM SKC
     FM261500 10007KT P6SM SCT035
     FM261800 08008KT P6SM SCT050 PROB30 2618/2624 5SM -TSRA
      BKN050CB
     FM270100 11005KT P6SM BKN250=



000
FTUS44 KSHV 260500
TAFTYR
TAF
KTYR 260536Z 2606/2706 13004KT P6SM BKN250
     FM261500 10007KT P6SM SCT035
     FM261800 08008KT P6SM SCT050 PROB30 2618/2624 5SM -TSRA
      BKN050CB
     FM270100 11005KT P6SM BKN250=



000
FTUS44 KSHV 260400 AAB
TAFLFK
TAF AMD
KLFK 260406Z 2604/2624 13006KT P6SM FEW060 BKN250
     FM260900 11005KT P6SM BKN250
     FM261500 07006KT P6SM SCT050=



000
FTUS44 KSHV 260200 AAA
TAFLFK
TAF AMD
KLFK 260247Z 2603/2624 10012G20KT P6SM VCTS BKN050CB
     FM260900 08005KT P6SM FEW060 BKN250
     FM261500 07006KT P6SM SCT050=



000
FTUS44 KSHV 252300
TAFTXK
TAF
KTXK 252332Z 2600/2624 03007KT P6SM FEW060 BKN250
     FM260100 11005KT P6SM BKN250
     FM261500 08006KT P6SM SCT250=



000
FTUS44 KSHV 252300
TAFTYR
TAF
KTYR 252332Z 2600/2624 VRB04KT P6SM BKN250
     FM261500 10007KT P6SM SCT250=



000
FTUS44 KSHV 252300
TAFGGG
TAF
KGGG 252332Z 2600/2624 06006KT P6SM FEW060 BKN250
     FM260100 09005KT P6SM BKN250
     FM261500 10007KT P6SM SCT250=



000
FTUS44 KSHV 252300
TAFSHV
TAF
KSHV 252332Z 2600/2624 03007KT P6SM FEW060 BKN280
     FM260100 11005KT P6SM BKN250
     FM261500 08006KT P6SM SCT050 BKN250=



000
FTUS44 KSHV 252300
TAFELD
TAF
KELD 252332Z 2600/2624 VRB05KT P6SM VCTS BKN050CB
      TEMPO 2600/2601 VRB15G25KT 5SM -TSRA OVC030CB
     FM260300 VRB02KT P6SM SCT060 OVC150
     FM261500 06004KT P6SM SCT250=



000
FTUS44 KSHV 252300
TAFLFK
TAF
KLFK 252332Z 2600/2624 03005KT P6SM FEW060 BKN250
     FM261500 07006KT P6SM SCT050=



000
FTUS44 KSHV 252300
TAFMLU
TAF
KMLU 252332Z 2600/2624 34005KT P6SM VCTS BKN050CB
      TEMPO 2600/2602 08015G30KT 2SM +TSRA OVC030CB
     FM260300 VRB02KT P6SM SCT060 OVC150
     FM261500 06004KT P6SM SCT250=



000
FTUS44 KSHV 252000 AAB
TAFMLU
TAF AMD
KMLU 252028Z 2520/2618 VRB06KT P6SM VCTS BKN050CB
      TEMPO 2520/2524 5SM -TSRA BKN045CB
     FM260100 VRB02KT P6SM SCT060 OVC150
     FM261500 06004KT P6SM SCT250=



000
FTUS44 KSHV 251800 AAA
TAFMLU
TAF AMD
KMLU 251800Z 2518/2618 VRB06KT P6SM VCTS BKN050CB
      TEMPO 2518/2522 5SM -TSRA BKN045CB
     FM260100 VRB02KT P6SM SCT060 OVC150
     FM261500 06004KT P6SM SCT250=



000
FTUS44 KSHV 251700
TAFELD
TAF
KELD 251720Z 2518/2618 VRB04KT P6SM SCT050
     FM252100 06006KT P6SM VCTS BKN050CB
      TEMPO 2522/2601 5SM -TSRA BKN045CB
     FM260200 VRB02KT P6SM SCT060 OVC150
     FM261500 06004KT P6SM SCT250
      AMD NOT SKED=



000
FTUS44 KSHV 251700
TAFTXK
TAF
KTXK 251720Z 2518/2618 VRB05KT P6SM FEW045 BKN250
     FM260100 11005KT P6SM BKN250
     FM261500 08006KT P6SM SCT250=



000
FTUS44 KSHV 251700
TAFSHV
TAF
KSHV 251720Z 2518/2618 VRB05KT P6SM FEW045 BKN250
     FM260100 11005KT P6SM BKN250
     FM261500 08006KT P6SM SCT050 BKN250=



000
FTUS44 KSHV 251700
TAFGGG
TAF
KGGG 251720Z 2518/2618 VRB04KT P6SM BKN250
     FM260100 12005KT P6SM BKN250
     FM261500 10007KT P6SM SCT250=



000
FTUS44 KSHV 251700
TAFMLU
TAF
KMLU 251720Z 2518/2618 VRB04KT P6SM SCT050
     FM252000 06006KT P6SM VCTS BKN050CB
      TEMPO 2521/2524 5SM -TSRA BKN045CB
     FM260100 VRB02KT P6SM SCT060 OVC150
     FM261500 06004KT P6SM SCT250=



000
FTUS44 KSHV 251700
TAFTYR
TAF
KTYR 251720Z 2518/2618 VRB04KT P6SM BKN250
     FM260100 12005KT P6SM BKN250
     FM261500 10007KT P6SM SCT250=



000
FTUS44 KSHV 251700
TAFLFK
TAF
KLFK 251720Z 2518/2618 VRB04KT P6SM FEW060 BKN250
     FM261500 07006KT P6SM SCT050=



000
FTUS44 KSHV 251100
TAFGGG
TAF
KGGG 251140Z 2512/2612 19003KT P6SM SCT350
     FM251500 VRB05KT P6SM FEW040 BKN350
     FM251900 08007KT P6SM SCT050 BKN300
     FM260100 11005KT P6SM SCT050 BKN300
     FM260500 15006KT P6SM BKN060 BKN300
     FM260900 13004KT P6SM VCTS BKN045CB OVC080=



000
FTUS44 KSHV 251100
TAFTXK
TAF
KTXK 251140Z 2512/2612 00000KT P6SM SCT350
     FM251600 VRB05KT P6SM FEW045 BKN350
     FM251900 06006KT P6SM SCT060 BKN130
     FM260100 11005KT P6SM BKN050 BKN300=



000
FTUS44 KSHV 251100
TAFSHV
TAF
KSHV 251140Z 2512/2612 00000KT P6SM BKN350
     FM251600 VRB05KT P6SM FEW045 BKN130
     FM252100 06006KT P6SM BKN060 BKN120
     FM260100 09007KT P6SM BKN050 BKN090
     FM260400 11004KT P6SM VCSH BKN045 BKN080
     FM260800 13004KT P6SM VCTS BKN045CB OVC080
     FM261000 13006KT P6SM SCT050 OVC080=



000
FTUS44 KSHV 251100
TAFTYR
TAF
KTYR 251140Z 2512/2612 19003KT P6SM SCT350
     FM251500 VRB05KT P6SM FEW040 BKN350
     FM251900 08007KT P6SM SCT050 BKN300
     FM260100 11005KT P6SM SCT050 BKN300
     FM260500 15006KT P6SM BKN060 BKN300
     FM260900 13004KT P6SM VCTS BKN045CB OVC080=



000
FTUS44 KSHV 251100
TAFELD
TAF
KELD 251140Z 2512/2612 VRB03KT P6SM OVC350
      TEMPO 2512/2513 5SM BR SCT130 OVC350
     FM251300 VRB04KT P6SM SCT130 OVC350
     FM252200 06006KT P6SM VCSH BKN050 BKN120 OVC300
      TEMPO 2523/2601 09007KT 4SM -TSRA BR BKN045CB OVC090
     FM260200 11007KT P6SM SCT050 BKN120
     FM260500 VRB03KT P6SM SCT120 OVC130=



000
FTUS44 KSHV 251100
TAFLFK
TAF
KLFK 251140Z 2512/2612 00000KT P6SM BKN350
      TEMPO 2512/2513 5SM BR SCT045 BKN350
     FM251300 VRB03KT P6SM SCT045 BKN350
     FM251800 04006KT P6SM BKN050 BKN350
     FM260200 11005KT P6SM BKN060 BKN100
     FM260400 VRB03KT P6SM VCTS BKN060CB OVC100
     FM260600 13004KT P6SM VCTS BKN045CB OVC080
     FM260800 12005KT P6SM SCT050 OVC090=



000
FTUS44 KSHV 251100
TAFMLU
TAF
KMLU 251140Z 2512/2612 00000KT P6SM FEW130 BKN350
      TEMPO 2512/2513 5SM BR SCT130 OVC350
     FM251400 VRB04KT P6SM SCT130 OVC350
     FM252000 06006KT P6SM VCTS BKN050CB OVC120
      TEMPO 2521/2524 5SM -TSRA BKN045CB OVC100
     FM260100 10005KT P6SM FEW070 BKN090 OVC150
     FM260500 VRB03KT P6SM SCT045 BKN120=



000
FTUS44 KSHV 251000 AAA
TAFELD
TAF AMD
KELD 251027Z 2510/2606 VRB03KT P6SM OVC350
      TEMPO 2512/2513 5SM BR SCT130 OVC350
     FM251300 VRB04KT P6SM SCT130 OVC350
     FM252200 06006KT P6SM VCSH BKN050 BKN120 OVC300
      TEMPO 2523/2601 09007KT 4SM -TSRA BR BKN045CB OVC090
     FM260200 11007KT P6SM SCT050 BKN120
     FM260500 VRB03KT P6SM SCT120 OVC130=



000
FTUS44 KSHV 251000 AAA
TAFLFK
TAF AMD
KLFK 251009Z 2510/2606 00000KT P6SM BKN350
      TEMPO 2512/2513 5SM BR SCT045 BKN350
     FM251300 VRB03KT P6SM SCT045 BKN350
     FM251800 04006KT P6SM BKN050 BKN350
     FM260200 11005KT P6SM BKN060 BKN100
     FM260400 VRB03KT P6SM VCTS BKN060CB OVC100=



000
FTUS44 KSHV 250900 AAA
TAFGGG
TAF AMD
KGGG 250953Z 2510/2606 19003KT P6SM SCT350
     FM251500 VRB05KT P6SM FEW040 BKN350
     FM251900 08007KT P6SM SCT050 BKN300
     FM260100 11005KT P6SM SCT050 BKN300
     FM260500 15006KT P6SM BKN060 BKN300=



000
FTUS44 KSHV 250900 AAA
TAFTYR
TAF AMD
KTYR 250951Z 2510/2606 19003KT P6SM SCT350
     FM251500 VRB05KT P6SM FEW040 BKN350
     FM251900 08007KT P6SM SCT050 BKN300
     FM260100 11005KT P6SM SCT050 BKN300
     FM260500 15006KT P6SM BKN060 BKN300=



000
FTUS44 KSHV 250900 AAA
TAFTXK
TAF AMD
KTXK 250944Z 2510/2606 00000KT P6SM SCT350
     FM251600 VRB05KT P6SM FEW045 BKN350
     FM251900 06006KT P6SM SCT060 BKN130
     FM260100 11005KT P6SM BKN050 BKN300=



000
FTUS44 KSHV 250900 AAA
TAFSHV
TAF AMD
KSHV 250932Z 2510/2606 00000KT P6SM BKN350
     FM251600 VRB05KT P6SM FEW045 BKN130
     FM252100 06006KT P6SM BKN060 BKN120
     FM260100 09007KT P6SM BKN050 BKN090
     FM260400 11004KT P6SM VCSH BKN045 BKN080=



000
FTUS44 KSHV 250900 AAA
TAFMLU
TAF AMD
KMLU 250927Z 2509/2606 00000KT P6SM FEW130 BKN350
      TEMPO 2511/2513 5SM BR SCT130 OVC350
     FM251400 VRB04KT P6SM SCT130 OVC350
     FM252000 06006KT P6SM VCTS BKN050CB OVC120
      TEMPO 2521/2524 5SM -TSRA BKN045CB OVC100
     FM260100 10005KT P6SM FEW070 BKN090 OVC150
     FM260500 VRB03KT P6SM SCT045 BKN120=



000
FTUS44 KSHV 250500
TAFTYR
TAF
KTYR 250539Z 2506/2606 14005KT P6SM SKC
     FM251500 16006KT P6SM FEW030
     FM251900 08006KT P6SM FEW050
     FM260100 12005KT P6SM SKC=



000
FTUS44 KSHV 250500
TAFLFK
TAF
KLFK 250539Z 2506/2606 08004KT P6SM SKC
      TEMPO 2510/2513 3SM BR
     FM251300 VRB03KT P6SM SCT025
     FM251600 VRB04KT P6SM SCT040
     FM252100 09006KT P6SM VCTS BKN050CB
     FM260200 11005KT P6SM SCT060 BKN250=



000
FTUS44 KSHV 250500
TAFSHV
TAF
KSHV 250539Z 2506/2606 00000KT P6SM FEW070 SCT300
     FM251600 VRB05KT P6SM FEW040
     FM252100 06006KT P6SM BKN060
     FM260100 09007KT P6SM FEW070 BKN250=



000
FTUS44 KSHV 250500
TAFGGG
TAF
KGGG 250539Z 2506/2606 16004KT P6SM SKC
     FM251500 VRB06KT P6SM FEW030
     FM251900 08006KT P6SM SCT050
     FM260100 11005KT P6SM SCT250=



000
FTUS44 KSHV 250500
TAFELD
TAF
KELD 250539Z 2506/2606 00000KT P6SM BKN250
     FM250800 00000KT P6SM SKC
      TEMPO 2509/2513 3SM BR
     FM251500 VRB04KT P6SM SCT040
     FM252000 07006KT P6SM BKN050
      TEMPO 2520/2524 3SM TSRA BKN045CB
     FM260100 09008KT P6SM FEW070 BKN250=



000
FTUS44 KSHV 250500
TAFMLU
TAF
KMLU 250539Z 2506/2606 00000KT P6SM BKN250
     FM250800 00000KT 3SM BR SKC
      TEMPO 2508/2512 1/4SM FG VV005
     FM251400 VRB04KT P6SM SCT030
     FM252000 07006KT P6SM VCTS BKN050CB
      TEMPO 2520/2524 3SM TSRA BKN045CB OVC100
     FM260100 10005KT P6SM FEW070 BKN250=



000
FTUS44 KSHV 250500
TAFTXK
TAF
KTXK 250539Z 2506/2606 00000KT P6SM SKC
     FM251600 VRB05KT P6SM FEW040
     FM251900 08006KT P6SM SCT060
     FM260100 11005KT P6SM SCT250=



000
FTUS44 KSHV 242300
TAFMLU
TAF
KMLU 242333Z 2500/2524 31005KT P6SM BKN250
     FM250600 00000KT 6SM BR SKC
     FM250800 00000KT 3SM BR SKC
      TEMPO 2508/2512 1/4SM FG VV005
     FM251400 VRB04KT P6SM SCT040
     FM252000 07006KT P6SM SCT050
      TEMPO 2520/2524 3SM TSRA BKN045CB=



000
FTUS44 KSHV 242300
TAFGGG
TAF
KGGG 242333Z 2500/2524 14004KT P6SM FEW060
     FM251500 VRB06KT P6SM FEW030
     FM251900 08006KT P6SM FEW050=



000
FTUS44 KSHV 242300
TAFTYR
TAF
KTYR 242333Z 2500/2524 VRB04KT P6SM SKC
     FM251500 16006KT P6SM FEW030
     FM251900 08006KT P6SM FEW050=



000
FTUS44 KSHV 242300
TAFELD
TAF
KELD 242333Z 2500/2524 31004KT P6SM BKN250
     FM250800 00000KT P6SM SKC
      TEMPO 2509/2513 3SM BR
     FM251500 VRB04KT P6SM SCT040
     FM252000 07006KT P6SM SCT050
      TEMPO 2520/2524 3SM TSRA BKN045CB=



000
FTUS44 KSHV 242300
TAFTXK
TAF
KTXK 242333Z 2500/2524 VRB03KT P6SM SKC
     FM251600 VRB05KT P6SM FEW040
     FM251900 08006KT P6SM SCT060=



000
FTUS44 KSHV 242300
TAFSHV
TAF
KSHV 242333Z 2500/2524 24003KT P6SM FEW070 SCT300
     FM250200 00000KT P6SM SKC
     FM251600 VRB05KT P6SM FEW040
     FM252100 06006KT P6SM SCT060=



000
FTUS44 KSHV 242300
TAFLFK
TAF
KLFK 242333Z 2500/2524 14004KT P6SM SKC
      TEMPO 2510/2513 3SM BR
     FM251300 VRB03KT P6SM SCT025
     FM251600 VRB04KT P6SM SCT040=



    US Dept of Commerce
    National Oceanic and Atmospheric Administration
    National Weather Service
    1325 East West Highway
    Silver Spring, MD 20910
    Page Author: NWS Internet Services Team
Disclaimer
Information Quality
Credits
Glossary
Privacy Policy
Freedom of Information Act (FOIA)
About Us
Career Opportunities